createdAt,value
2022-09-14T00:01:21.358Z,36.48066
2022-09-14T00:06:25.624Z,36.55152
2022-09-14T00:11:26.580Z,36.52798
2022-09-14T00:16:27.529Z,36.52281
2022-09-14T00:21:28.487Z,36.63562
2022-09-14T00:26:29.419Z,36.63064
2022-09-14T00:31:30.978Z,36.71323
2022-09-14T00:36:32.001Z,36.67166
2022-09-14T00:41:32.990Z,36.75639
2022-09-14T00:46:34.155Z,36.86359
2022-09-14T00:51:35.159Z,36.94731
2022-09-14T00:56:37.886Z,36.97723
2022-09-14T01:01:40.047Z,36.98934
2022-09-14T01:06:41.286Z,36.93623
2022-09-14T01:11:42.409Z,36.96632
2022-09-14T01:16:44.379Z,36.95491
2022-09-14T01:21:45.407Z,36.82449
2022-09-14T01:26:46.402Z,36.76591
2022-09-14T01:31:47.556Z,36.50986
2022-09-14T01:36:48.642Z,36.63587
2022-09-14T01:41:50.640Z,36.61322
2022-09-14T01:46:51.736Z,36.73817
2022-09-14T01:51:52.703Z,36.67917
2022-09-14T01:56:53.714Z,36.63238
2022-09-14T02:01:54.707Z,36.73381
2022-09-14T02:06:55.799Z,36.85282
2022-09-14T02:11:56.779Z,36.80637
2022-09-14T02:16:57.865Z,36.87748
2022-09-14T02:21:59.015Z,36.80087
2022-09-14T02:27:00.006Z,36.86045
2022-09-14T02:32:01.210Z,36.80232
2022-09-14T02:37:02.238Z,36.92715
2022-09-14T02:42:03.297Z,36.91526
2022-09-14T02:47:04.414Z,36.93283
2022-09-14T02:52:05.515Z,36.93255
2022-09-14T02:57:06.605Z,37.05802
2022-09-14T03:02:07.668Z,37.24159
2022-09-14T03:07:08.671Z,37.26565
2022-09-14T03:12:09.645Z,37.35477
2022-09-14T03:17:10.674Z,37.36123
2022-09-14T03:22:11.632Z,37.41459
2022-09-14T03:27:12.601Z,37.41477
2022-09-14T03:32:13.509Z,37.39151
2022-09-14T03:37:14.462Z,37.4684
2022-09-14T03:42:15.396Z,37.56876
2022-09-14T03:47:16.412Z,37.39113
2022-09-14T03:52:17.479Z,37.35585
2022-09-14T03:57:18.413Z,37.35056
2022-09-14T04:02:19.342Z,37.38055
2022-09-14T04:07:20.366Z,37.44558
2022-09-14T04:12:21.696Z,37.45157
2022-09-14T04:17:22.603Z,37.36892
2022-09-14T04:22:23.516Z,37.3279
2022-09-14T04:27:24.489Z,37.39923
2022-09-14T04:32:25.497Z,37.44056
2022-09-14T04:37:26.433Z,37.47025
2022-09-14T04:42:27.442Z,37.38188
2022-09-14T04:47:28.380Z,37.57749
2022-09-14T04:52:29.399Z,37.54146
2022-09-14T04:57:30.400Z,37.511
2022-09-14T05:02:31.424Z,37.35126
2022-09-14T05:07:32.523Z,37.28625
2022-09-14T05:12:33.543Z,37.36893
2022-09-14T05:17:34.567Z,37.30966
2022-09-14T05:22:35.507Z,37.33331
2022-09-14T05:27:36.521Z,37.33369
2022-09-14T05:32:37.867Z,37.41025
2022-09-14T05:37:39.160Z,37.40395
2022-09-14T05:42:40.182Z,37.37394
2022-09-14T05:47:41.174Z,37.29041
2022-09-14T05:52:42.224Z,37.30152
2022-09-14T05:57:43.604Z,37.20619
2022-09-14T06:02:44.698Z,37.17523
2022-09-14T06:07:45.776Z,36.96124
2022-09-14T06:12:46.705Z,36.91353
2022-09-14T06:17:47.754Z,36.9416
2022-09-14T06:22:48.744Z,36.65082
2022-09-14T06:27:49.684Z,36.70253
2022-09-14T06:32:50.721Z,36.42772
2022-09-14T06:37:51.773Z,36.29717
2022-09-14T06:42:52.736Z,36.26681
2022-09-14T06:47:53.797Z,36.17691
2022-09-14T06:52:54.755Z,35.87198
2022-09-14T06:57:55.665Z,35.68149
2022-09-14T07:02:56.657Z,35.76396
2022-09-14T07:07:57.623Z,35.86476
2022-09-14T07:12:58.602Z,35.70901
2022-09-14T07:17:59.713Z,35.73082
2022-09-14T07:23:00.626Z,35.48042
2022-09-14T07:28:01.838Z,35.4857
2022-09-14T07:33:02.791Z,35.44937
2022-09-14T07:38:03.865Z,35.32234
2022-09-14T07:43:05.080Z,35.10745
2022-09-14T07:48:06.038Z,35.2074
2022-09-14T07:53:07.008Z,34.74402
2022-09-14T07:58:07.948Z,34.26068
2022-09-14T08:03:08.923Z,34.0338
2022-09-14T08:08:09.880Z,34.12364
2022-09-14T08:13:10.893Z,33.98972
2022-09-14T08:18:11.901Z,33.80841
2022-09-14T08:23:12.848Z,33.44947
2022-09-14T08:28:13.774Z,32.71117
2022-09-14T08:33:14.810Z,32.44496
2022-09-14T08:38:15.957Z,31.87884
2022-09-14T08:43:16.998Z,31.20959
2022-09-14T08:48:17.985Z,30.36921
2022-09-14T08:53:18.920Z,29.91427
2022-09-14T08:58:19.844Z,27.96068
2022-09-14T09:03:20.788Z,28.16821
2022-09-14T09:08:22.069Z,27.37681
2022-09-14T09:13:22.972Z,27.52911
2022-09-14T09:18:24.016Z,26.97064
2022-09-14T09:23:24.906Z,27.13588
2022-09-14T09:28:25.835Z,27.1274
2022-09-14T09:33:26.783Z,26.98314
2022-09-14T09:38:27.733Z,26.82704
2022-09-14T09:43:48.407Z,26.40729
2022-09-14T09:48:50.647Z,26.33061
2022-09-14T09:53:51.649Z,26.14711
2022-09-14T09:58:52.565Z,26.29861
2022-09-14T10:03:53.476Z,26.01899
2022-09-14T10:08:54.538Z,25.71505
2022-09-14T10:13:55.569Z,25.62618
2022-09-14T10:18:56.456Z,25.38681
2022-09-14T10:23:57.788Z,25.10029
2022-09-14T10:28:58.812Z,25.19833
2022-09-14T10:33:59.928Z,24.87211
2022-09-14T10:39:00.902Z,24.69489
2022-09-14T10:44:01.816Z,24.45394
2022-09-14T10:49:02.835Z,24.60585
2022-09-14T10:54:03.818Z,24.46397
2022-09-14T10:59:04.731Z,24.4206
2022-09-14T11:04:05.663Z,24.39866
2022-09-14T11:09:06.711Z,24.06096
2022-09-14T11:14:07.645Z,24.08779
2022-09-14T11:19:08.583Z,23.80147
2022-09-14T11:24:09.522Z,23.56955
2022-09-14T11:29:10.512Z,23.67871
2022-09-14T11:34:11.434Z,23.71776
2022-09-14T11:39:12.473Z,23.48866
2022-09-14T11:44:13.549Z,23.57411
2022-09-14T11:49:14.446Z,23.63497
2022-09-14T11:54:15.385Z,23.24871
2022-09-14T11:59:16.302Z,23.2771
2022-09-14T12:04:17.356Z,23.20643
2022-09-14T12:09:18.344Z,23.00234
2022-09-14T12:14:19.283Z,22.95342
2022-09-14T12:19:20.194Z,23.11967
2022-09-14T12:24:21.183Z,23.10028
2022-09-14T12:29:22.425Z,23.21873
2022-09-14T12:34:23.367Z,23.34479
2022-09-14T12:39:24.345Z,23.21188
2022-09-14T12:44:25.323Z,23.27551
2022-09-14T12:49:26.304Z,23.47594
2022-09-14T12:54:27.363Z,23.52299
2022-09-14T12:59:28.339Z,23.25029
2022-09-14T13:04:29.386Z,22.99334
2022-09-14T13:09:30.308Z,22.71148
2022-09-14T13:14:31.283Z,22.70526
2022-09-14T13:19:32.237Z,22.95707
2022-09-14T13:24:33.313Z,23.19531
2022-09-14T13:29:34.309Z,23.34666
2022-09-14T13:34:35.255Z,23.371
2022-09-14T13:39:36.306Z,23.51356
2022-09-14T13:44:37.336Z,23.62747
2022-09-14T13:49:38.273Z,23.70833
2022-09-14T13:54:39.197Z,23.74915
2022-09-14T13:59:40.260Z,23.77134
2022-09-14T14:04:41.206Z,23.85498
2022-09-14T14:09:42.147Z,23.99243
2022-09-14T14:14:43.116Z,24.01242
2022-09-14T14:19:44.114Z,24.23045
2022-09-14T14:25:11.739Z,24.20013
2022-09-14T14:30:14.180Z,24.38783
2022-09-14T14:35:15.220Z,24.52795
2022-09-14T14:40:16.322Z,24.56964
2022-09-14T14:45:17.522Z,24.78429
2022-09-14T14:50:18.536Z,25.03664
2022-09-14T14:55:19.501Z,25.20239
2022-09-14T15:00:20.628Z,25.34752
2022-09-14T15:05:21.907Z,25.45747
2022-09-14T15:10:22.987Z,25.51444
2022-09-14T15:15:23.969Z,25.54196
2022-09-14T15:20:24.975Z,25.80238
2022-09-14T15:25:25.896Z,25.86174
2022-09-14T15:30:26.838Z,26.02367
2022-09-14T15:35:27.859Z,26.16422
2022-09-14T15:40:29.051Z,26.31466
2022-09-14T15:45:30.175Z,26.58411
2022-09-14T15:50:31.233Z,26.88441
2022-09-14T15:55:32.167Z,26.96933
2022-09-14T16:00:33.119Z,26.93601
2022-09-14T16:05:34.156Z,27.09774
2022-09-14T16:10:35.187Z,27.1933
2022-09-14T16:15:36.124Z,27.46252
2022-09-14T16:20:37.366Z,27.81643
2022-09-14T16:25:38.308Z,27.96374
2022-09-14T16:30:39.257Z,28.04452
2022-09-14T16:35:40.294Z,28.05468
2022-09-14T16:40:42.968Z,28.08588
2022-09-14T16:45:44.069Z,28.20679
2022-09-14T16:50:45.016Z,28.20039
2022-09-14T16:55:46.283Z,28.34253
2022-09-14T17:00:47.338Z,28.32752
2022-09-14T17:05:48.374Z,28.5844
2022-09-14T17:10:49.299Z,28.80161
2022-09-14T17:15:50.360Z,28.79138
2022-09-14T17:20:51.293Z,29.00755
2022-09-14T17:25:52.212Z,29.03894
2022-09-14T17:30:53.239Z,29.23996
2022-09-14T17:35:54.161Z,29.11326
2022-09-14T17:40:55.604Z,29.26052
2022-09-14T17:45:56.601Z,29.38453
2022-09-14T17:50:57.598Z,29.46988
2022-09-14T17:55:58.592Z,29.51863
2022-09-14T18:00:59.735Z,29.47742
2022-09-14T18:06:00.722Z,29.51437
2022-09-14T18:11:01.812Z,29.72934
2022-09-14T18:16:02.861Z,29.85508
2022-09-14T18:21:03.885Z,29.86661
2022-09-14T18:26:04.927Z,30.00988
2022-09-14T18:31:06.184Z,30.0471
2022-09-14T18:36:07.177Z,30.00852
2022-09-14T18:41:08.361Z,30.13268
2022-09-14T18:46:09.439Z,30.09719
2022-09-14T18:51:10.452Z,30.00288
2022-09-14T18:56:11.331Z,30.11806
2022-09-14T19:01:12.333Z,30.31
2022-09-14T19:06:13.248Z,30.46776
2022-09-14T19:11:14.260Z,30.47345
2022-09-14T19:16:15.443Z,30.52271
2022-09-14T19:21:16.486Z,30.68411
2022-09-14T19:26:17.412Z,30.49322
2022-09-14T19:31:18.496Z,30.55417
2022-09-14T19:36:19.444Z,30.74578
2022-09-14T19:41:20.449Z,30.80061
2022-09-14T19:46:21.558Z,30.87408
2022-09-14T19:51:22.708Z,31.05576
2022-09-14T19:56:23.686Z,31.16428
2022-09-14T20:01:24.640Z,31.20797
2022-09-14T20:06:25.603Z,31.35844
2022-09-14T20:11:26.552Z,31.44985
2022-09-14T20:16:27.550Z,31.57023
2022-09-14T20:21:28.492Z,31.55856
2022-09-14T20:26:29.604Z,31.51156
2022-09-14T20:31:30.980Z,31.52495
2022-09-14T20:36:31.917Z,31.54926
2022-09-14T20:41:32.926Z,31.62302
2022-09-14T20:46:33.899Z,31.76046
2022-09-14T20:51:34.962Z,31.67258
2022-09-14T20:56:35.909Z,31.88326
2022-09-14T21:01:38.853Z,31.97457
2022-09-14T21:06:40.700Z,32.07102
2022-09-14T21:11:41.950Z,32.17938
2022-09-14T21:16:43.111Z,32.40853
2022-09-14T21:21:44.208Z,32.60016
2022-09-14T21:26:45.187Z,32.57055
2022-09-14T21:31:46.117Z,32.6965
2022-09-14T21:36:47.038Z,32.68645
2022-09-14T21:41:48.011Z,32.89657
2022-09-14T21:46:49.143Z,32.87097
2022-09-14T21:51:50.090Z,32.93775
2022-09-14T21:56:51.139Z,33.03476
2022-09-14T22:01:52.236Z,33.02266
2022-09-14T22:06:53.222Z,33.09569
2022-09-14T22:11:54.342Z,33.20913
2022-09-14T22:16:55.338Z,33.18539
2022-09-14T22:21:56.299Z,33.2939
2022-09-14T22:26:57.252Z,33.41997
2022-09-14T22:31:58.324Z,33.57681
2022-09-14T22:36:59.251Z,33.73859
2022-09-14T22:42:00.234Z,33.80437
2022-09-14T22:47:01.300Z,33.84595
2022-09-14T22:52:02.340Z,33.80431
2022-09-14T22:57:03.299Z,33.99498
2022-09-14T23:02:04.263Z,33.97619
2022-09-14T23:07:05.250Z,34.08537
2022-09-14T23:12:06.257Z,34.24738
2022-09-14T23:17:07.326Z,34.38958
2022-09-14T23:22:08.347Z,34.38999
2022-09-14T23:27:09.301Z,34.55728
2022-09-14T23:32:10.417Z,34.73585
2022-09-14T23:37:11.330Z,34.74141
2022-09-14T23:42:12.317Z,34.83677
2022-09-14T23:47:13.542Z,34.97999
2022-09-14T23:52:14.542Z,35.06327
2022-09-14T23:57:15.525Z,34.90007
